sensor_id;sensor_type;location;lat;lon;timestamp;P1;durP1;ratioP1;P2;durP2;ratioP2
48481;SDS011;34284;48.278;16.378;2022-10-16T09:21:09;73.80;;;47.78;;
48481;SDS011;34284;48.278;16.378;2022-10-16T09:23:36;70.82;;;46.08;;
48481;SDS011;34284;48.278;16.378;2022-10-16T09:26:03;65.72;;;45.05;;
48481;SDS011;34284;48.278;16.378;2022-10-16T09:28:30;69.68;;;45.83;;
48481;SDS011;34284;48.278;16.378;2022-10-16T09:30:56;67.80;;;46.58;;
48481;SDS011;34284;48.278;16.378;2022-10-16T09:33:27;69.55;;;45.22;;
48481;SDS011;34284;48.278;16.378;2022-10-16T09:35:55;72.20;;;44.03;;
48481;SDS011;34284;48.278;16.378;2022-10-16T09:38:27;70.00;;;44.63;;
48481;SDS011;34284;48.278;16.378;2022-10-16T09:41:00;72.22;;;49.00;;
48481;SDS011;34284;48.278;16.378;2022-10-16T09:48:20;80.35;;;49.55;;
48481;SDS011;34284;48.278;16.378;2022-10-16T09:50:57;87.25;;;53.05;;
48481;SDS011;34284;48.278;16.378;2022-10-16T09:53:23;91.30;;;57.35;;
48481;SDS011;34284;48.278;16.378;2022-10-16T09:55:50;86.82;;;54.72;;
48481;SDS011;34284;48.278;16.378;2022-10-16T09:58:16;90.57;;;54.72;;
48481;SDS011;34284;48.278;16.378;2022-10-16T10:00:42;93.03;;;58.20;;
48481;SDS011;34284;48.278;16.378;2022-10-16T10:03:30;97.43;;;59.38;;
48481;SDS011;34284;48.278;16.378;2022-10-16T10:05:58;87.50;;;55.22;;
48481;SDS011;34284;48.278;16.378;2022-10-16T10:08:24;88.10;;;51.03;;
48481;SDS011;34284;48.278;16.378;2022-10-16T10:10:52;90.90;;;55.25;;
48481;SDS011;34284;48.278;16.378;2022-10-16T10:13:20;90.10;;;54.45;;
48481;SDS011;34284;48.278;16.378;2022-10-16T10:15:46;86.30;;;51.25;;
48481;SDS011;34284;48.278;16.378;2022-10-16T10:23:54;73.85;;;49.13;;
48481;SDS011;34284;48.278;16.378;2022-10-16T10:26:23;70.35;;;47.75;;
48481;SDS011;34284;48.278;16.378;2022-10-16T10:44:03;60.67;;;40.83;;
48481;SDS011;34284;48.278;16.378;2022-10-16T10:49:51;57.08;;;37.15;;
48481;SDS011;34284;48.278;16.378;2022-10-16T10:54:32;61.08;;;40.95;;
48481;SDS011;34284;48.278;16.378;2022-10-16T11:02:41;56.85;;;39.38;;
48481;SDS011;34284;48.278;16.378;2022-10-16T11:07:49;46.33;;;35.42;;
48481;SDS011;34284;48.278;16.378;2022-10-16T11:10:18;45.78;;;35.67;;
48481;SDS011;34284;48.278;16.378;2022-10-16T11:12:47;49.67;;;36.60;;
48481;SDS011;34284;48.278;16.378;2022-10-16T11:15:18;52.38;;;39.80;;
48481;SDS011;34284;48.278;16.378;2022-10-16T11:17:50;47.55;;;36.78;;
48481;SDS011;34284;48.278;16.378;2022-10-16T11:20:19;69.22;;;48.90;;
48481;SDS011;34284;48.278;16.378;2022-10-16T11:22:47;52.00;;;40.25;;
48481;SDS011;34284;48.278;16.378;2022-10-16T11:27:50;352.98;;;265.92;;
48481;SDS011;34284;48.278;16.378;2022-10-16T11:40:48;444.23;;;283.73;;
48481;SDS011;34284;48.278;16.378;2022-10-16T11:43:22;427.53;;;271.03;;
48481;SDS011;34284;48.278;16.378;2022-10-16T11:46:02;439.38;;;273.63;;
48481;SDS011;34284;48.278;16.378;2022-10-16T11:48:31;419.83;;;267.13;;
48481;SDS011;34284;48.278;16.378;2022-10-16T11:51:05;424.03;;;276.80;;
48481;SDS011;34284;48.278;16.378;2022-10-16T11:53:45;453.20;;;283.67;;
48481;SDS011;34284;48.278;16.378;2022-10-16T11:56:16;441.03;;;274.87;;
48481;SDS011;34284;48.278;16.378;2022-10-16T12:01:31;444.07;;;301.50;;
48481;SDS011;34284;48.278;16.378;2022-10-16T12:06:58;424.80;;;266.77;;
48481;SDS011;34284;48.278;16.378;2022-10-16T12:09:26;300.70;;;190.07;;
48481;SDS011;34284;48.278;16.378;2022-10-16T12:11:52;45.53;;;40.72;;
48481;SDS011;34284;48.278;16.378;2022-10-16T12:14:20;47.88;;;42.95;;
48481;SDS011;34284;48.278;16.378;2022-10-16T12:16:56;62.50;;;50.40;;
48481;SDS011;34284;48.278;16.378;2022-10-16T12:19:26;51.25;;;46.45;;
48481;SDS011;34284;48.278;16.378;2022-10-16T12:21:54;46.58;;;40.78;;
48481;SDS011;34284;48.278;16.378;2022-10-16T12:26:59;41.88;;;37.70;;
48481;SDS011;34284;48.278;16.378;2022-10-16T12:29:31;46.10;;;42.03;;
48481;SDS011;34284;48.278;16.378;2022-10-16T12:31:58;51.53;;;46.63;;
48481;SDS011;34284;48.278;16.378;2022-10-16T12:37:26;49.92;;;45.15;;
48481;SDS011;34284;48.278;16.378;2022-10-16T12:39:54;39.22;;;35.88;;
48481;SDS011;34284;48.278;16.378;2022-10-16T12:44:49;54.92;;;46.05;;
48481;SDS011;34284;48.278;16.378;2022-10-16T12:47:22;45.20;;;39.65;;
48481;SDS011;34284;48.278;16.378;2022-10-16T12:49:52;55.80;;;49.92;;
48481;SDS011;34284;48.278;16.378;2022-10-16T12:52:25;48.15;;;44.08;;
48481;SDS011;34284;48.278;16.378;2022-10-16T12:54:55;50.90;;;46.05;;
48481;SDS011;34284;48.278;16.378;2022-10-16T12:57:28;282.67;;;158.38;;
48481;SDS011;34284;48.278;16.378;2022-10-16T13:05:38;61.35;;;50.08;;
48481;SDS011;34284;48.278;16.378;2022-10-16T13:23:29;426.77;;;278.42;;
48481;SDS011;34284;48.278;16.378;2022-10-16T13:28:30;424.10;;;260.58;;
48481;SDS011;34284;48.278;16.378;2022-10-16T13:30:58;427.48;;;261.35;;
48481;SDS011;34284;48.278;16.378;2022-10-16T13:33:31;441.98;;;298.17;;
48481;SDS011;34284;48.278;16.378;2022-10-16T13:35:58;101.22;;;72.43;;
48481;SDS011;34284;48.278;16.378;2022-10-16T13:38:25;50.00;;;45.20;;
48481;SDS011;34284;48.278;16.378;2022-10-16T13:43:18;64.85;;;58.55;;
48481;SDS011;34284;48.278;16.378;2022-10-16T13:48:27;424.27;;;270.00;;
48481;SDS011;34284;48.278;16.378;2022-10-16T13:53:29;433.55;;;299.35;;
48481;SDS011;34284;48.278;16.378;2022-10-16T13:55:55;432.60;;;286.30;;
48481;SDS011;34284;48.278;16.378;2022-10-16T13:58:22;439.90;;;313.85;;
48481;SDS011;34284;48.278;16.378;2022-10-16T14:00:56;183.75;;;135.27;;
48481;SDS011;34284;48.278;16.378;2022-10-16T14:03:23;427.27;;;285.20;;
48481;SDS011;34284;48.278;16.378;2022-10-16T14:05:52;433.83;;;287.75;;
48481;SDS011;34284;48.278;16.378;2022-10-16T14:08:18;86.90;;;70.43;;
48481;SDS011;34284;48.278;16.378;2022-10-16T14:10:48;48.17;;;44.15;;
48481;SDS011;34284;48.278;16.378;2022-10-16T14:13:16;63.78;;;54.53;;
48481;SDS011;34284;48.278;16.378;2022-10-16T14:15:45;51.33;;;45.92;;
48481;SDS011;34284;48.278;16.378;2022-10-16T14:18:19;299.05;;;204.02;;
48481;SDS011;34284;48.278;16.378;2022-10-16T14:20:45;92.57;;;74.13;;
48481;SDS011;34284;48.278;16.378;2022-10-16T14:25:51;426.50;;;276.80;;
48481;SDS011;34284;48.278;16.378;2022-10-16T14:28:21;417.38;;;265.25;;
48481;SDS011;34284;48.278;16.378;2022-10-16T14:38:30;40.92;;;37.33;;
48481;SDS011;34284;48.278;16.378;2022-10-16T14:40:56;43.70;;;39.67;;
48481;SDS011;34284;48.278;16.378;2022-10-16T14:43:42;42.42;;;38.08;;
48481;SDS011;34284;48.278;16.378;2022-10-16T14:46:11;50.10;;;45.55;;
48481;SDS011;34284;48.278;16.378;2022-10-16T14:48:45;182.27;;;113.60;;
48481;SDS011;34284;48.278;16.378;2022-10-16T14:51:16;41.45;;;37.60;;
48481;SDS011;34284;48.278;16.378;2022-10-16T14:53:42;44.85;;;36.30;;
48481;SDS011;34284;48.278;16.378;2022-10-16T14:56:09;65.70;;;45.70;;
48481;SDS011;34284;48.278;16.378;2022-10-16T14:58:40;36.10;;;33.72;;
48481;SDS011;34284;48.278;16.378;2022-10-16T15:01:07;38.78;;;35.33;;
48481;SDS011;34284;48.278;16.378;2022-10-16T15:03:33;40.95;;;37.90;;
48481;SDS011;34284;48.278;16.378;2022-10-16T15:05:59;44.17;;;39.33;;
48481;SDS011;34284;48.278;16.378;2022-10-16T15:08:25;47.00;;;42.65;;
48481;SDS011;34284;48.278;16.378;2022-10-16T15:10:51;47.70;;;43.58;;
48481;SDS011;34284;48.278;16.378;2022-10-16T15:13:17;51.80;;;46.00;;
48481;SDS011;34284;48.278;16.378;2022-10-16T15:15:44;35.75;;;33.30;;
48481;SDS011;34284;48.278;16.378;2022-10-16T15:18:10;39.50;;;36.58;;
48481;SDS011;34284;48.278;16.378;2022-10-16T15:20:37;39.40;;;36.47;;
48481;SDS011;34284;48.278;16.378;2022-10-16T15:23:04;44.30;;;40.53;;
48481;SDS011;34284;48.278;16.378;2022-10-16T15:25:33;36.28;;;32.90;;
48481;SDS011;34284;48.278;16.378;2022-10-16T15:28:00;38.15;;;34.60;;
48481;SDS011;34284;48.278;16.378;2022-10-16T15:30:26;276.20;;;149.68;;
48481;SDS011;34284;48.278;16.378;2022-10-16T15:32:53;70.07;;;50.55;;
48481;SDS011;34284;48.278;16.378;2022-10-16T15:35:19;293.77;;;150.93;;
48481;SDS011;34284;48.278;16.378;2022-10-16T15:37:48;264.50;;;140.57;;
48481;SDS011;34284;48.278;16.378;2022-10-16T15:40:15;40.00;;;36.97;;
48481;SDS011;34284;48.278;16.378;2022-10-16T15:42:41;37.17;;;34.67;;
48481;SDS011;34284;48.278;16.378;2022-10-16T15:45:08;34.35;;;31.52;;
48481;SDS011;34284;48.278;16.378;2022-10-16T15:47:34;39.13;;;35.35;;
48481;SDS011;34284;48.278;16.378;2022-10-16T15:50:01;46.60;;;41.15;;
48481;SDS011;34284;48.278;16.378;2022-10-16T15:52:27;44.25;;;37.45;;
48481;SDS011;34284;48.278;16.378;2022-10-16T15:54:53;65.45;;;43.55;;
